Time;durP1;ratioP1;P1;durP2;ratioP2;P2;SDS_P1;SDS_P2;PMS_P1;PMS_P2;Temp;Humidity;BMP_temperature;BMP_pressure;BME280_temperature;BME280_humidity;BME280_pressure;Samples;Min_cycle;Max_cycle;Signal;HPM_P1;HPM_P2
2023/08/20 00:00:18;;;;;;;8.38;7.50;;;;;;;-141.84;70.98;22021.59;5064155;28;20339;-60
2023/08/20 00:02:47;;;;;;;8.95;6.93;;;;;;;-141.84;71.17;22001.28;5048863;28;20224;-59
2023/08/20 00:05:19;;;;;;;8.50;7.60;;;;;;;-141.84;71.82;21948.41;5044387;28;20225;-60
2023/08/20 00:07:47;;;;;;;11.50;7.80;;;;;;;-141.84;72.27;21970.78;5037180;28;20236;-60
2023/08/20 00:10:16;;;;;;;8.85;7.80;;;;;;;-141.84;72.46;21928.06;5044143;28;20237;-61
2023/08/20 00:12:44;;;;;;;9.10;8.20;;;;;;;-141.84;73.07;21881.28;5044174;28;20728;-60
2023/08/20 00:15:13;;;;;;;8.70;7.00;;;;;;;-141.84;73.50;21858.94;5043625;28;20309;-60
2023/08/20 00:17:42;;;;;;;8.20;7.32;;;;;;;-141.84;73.54;21879.25;5030393;28;20768;-61
2023/08/20 00:20:13;;;;;;;8.63;7.47;;;;;;;-141.84;73.78;21846.72;5024417;28;20666;-60
2023/08/20 00:22:45;;;;;;;8.23;7.53;;;;;;;-141.84;74.19;21844.69;5024993;28;20210;-60
2023/08/20 00:25:15;;;;;;;7.95;7.25;;;;;;;-141.84;73.65;21838.59;5024178;28;20234;-60
2023/08/20 00:27:44;;;;;;;8.35;7.50;;;;;;;-141.84;74.48;21816.22;5016389;28;20327;-60
2023/08/20 00:30:13;;;;;;;10.27;8.05;;;;;;;-141.84;74.25;21863.00;5016115;28;20316;-60
2023/08/20 00:32:41;;;;;;;8.73;7.47;;;;;;;-141.84;74.30;21858.94;5017457;28;20689;-60
2023/08/20 00:35:10;;;;;;;9.93;7.97;;;;;;;-141.84;74.96;21820.28;5023820;28;20213;-60
2023/08/20 00:37:39;;;;;;;9.15;8.25;;;;;;;-141.84;75.13;21806.06;5017106;28;20552;-59
2023/08/20 00:40:10;;;;;;;9.75;8.70;;;;;;;-141.84;75.40;21826.41;5023906;28;20233;-59
2023/08/20 00:42:39;;;;;;;8.48;7.68;;;;;;;-141.84;75.95;21761.31;5023827;28;20333;-60
2023/08/20 00:45:08;;;;;;;11.35;7.93;;;;;;;-141.84;76.16;21716.59;5022886;28;20313;-60
2023/08/20 00:47:38;;;;;;;12.35;8.43;;;;;;;-141.84;76.19;21769.47;5016258;28;20256;-60
2023/08/20 00:50:08;;;;;;;9.60;8.63;;;;;;;-141.84;76.35;21718.63;5025334;28;20311;-60
2023/08/20 00:52:37;;;;;;;8.80;7.68;;;;;;;-141.84;76.47;21730.81;5043946;28;20205;-58
2023/08/20 00:55:11;;;;;;;10.50;8.13;;;;;;;-141.84;76.89;21698.28;5055186;28;20636;-60
2023/08/20 00:57:40;;;;;;;9.27;7.78;;;;;;;-141.84;76.78;21720.66;5055972;28;20235;-59
2023/08/20 01:00:10;;;;;;;9.48;7.60;;;;;;;-141.84;77.21;21684.06;5062707;28;20229;-59
2023/08/20 01:02:40;;;;;;;10.10;8.40;;;;;;;-141.84;77.37;21680.00;5049688;28;20225;-59
2023/08/20 01:05:11;;;;;;;12.23;8.30;;;;;;;-141.84;77.07;21669.81;5043394;28;20259;-60
2023/08/20 01:08:16;;;;;;;12.82;8.88;;;;;;;-141.84;77.51;21669.81;5036223;28;20678;-59
2023/08/20 01:10:56;;;;;;;8.48;7.68;;;;;;;-141.84;78.25;21614.94;5022784;28;20259;-60
2023/08/20 01:13:24;;;;;;;10.18;8.65;;;;;;;-141.84;77.34;21647.47;5039968;28;20683;-59
2023/08/20 01:15:53;;;;;;;10.90;8.10;;;;;;;-141.84;76.96;21641.34;5043017;28;20233;-60
2023/08/20 01:18:21;;;;;;;9.02;8.00;;;;;;;-141.84;77.39;21616.97;5031700;28;20321;-60
2023/08/20 01:20:57;;;;;;;8.95;8.00;;;;;;;-141.84;77.36;21619.00;5023123;28;20289;-60
2023/08/20 01:23:51;;;;;;;11.40;8.20;;;;;;;-141.84;77.08;21610.84;5015815;28;20676;-59
2023/08/20 01:26:41;;;;;;;9.05;8.13;;;;;;;-141.84;76.93;21633.22;5023592;28;20288;-61
2023/08/20 01:29:12;;;;;;;11.40;8.15;;;;;;;-141.84;77.00;21637.28;5022747;28;20244;-60
2023/08/20 01:31:42;;;;;;;10.07;8.20;;;;;;;-141.84;77.34;21643.38;5001102;28;20206;-60
2023/08/20 01:34:11;;;;;;;12.38;9.30;;;;;;;-141.84;77.21;21627.13;5023147;28;20731;-60
2023/08/20 01:36:40;;;;;;;11.40;9.57;;;;;;;-141.84;76.65;21655.59;5023035;28;20260;-60
2023/08/20 01:39:08;;;;;;;13.25;10.00;;;;;;;-141.84;76.46;21663.72;5022865;28;20581;-60
2023/08/20 01:41:37;;;;;;;11.95;10.25;;;;;;;-141.84;78.01;21570.19;5015397;28;20234;-60
2023/08/20 01:44:06;;;;;;;13.93;10.27;;;;;;;-141.84;78.58;21568.16;5022278;28;20285;-61
2023/08/20 01:46:36;;;;;;;13.10;11.63;;;;;;;-141.84;78.17;21564.09;5023120;28;20637;-59
2023/08/20 01:49:05;;;;;;;16.73;12.43;;;;;;;-141.84;78.66;21560.03;5023327;28;20230;-60
2023/08/20 01:51:33;;;;;;;15.48;12.75;;;;;;;-141.84;79.21;21543.75;5014631;28;20644;-58
2023/08/20 01:54:02;;;;;;;12.23;11.00;;;;;;;-141.84;79.93;21515.28;5022971;28;20234;-59
2023/08/20 01:56:31;;;;;;;15.88;13.30;;;;;;;-141.84;80.44;21509.19;5022782;28;20234;-59
2023/08/20 01:58:59;;;;;;;18.02;15.10;;;;;;;-141.84;80.85;21484.78;5022635;28;20308;-59
2023/08/20 02:01:28;;;;;;;17.33;15.52;;;;;;;-141.84;81.02;21474.63;5014117;28;20228;-60
2023/08/20 02:03:58;;;;;;;18.52;16.65;;;;;;;-141.84;81.27;21494.97;5021645;28;20303;-60
2023/08/20 02:06:26;;;;;;;20.23;17.08;;;;;;;-141.84;81.51;21474.63;5022470;28;20229;-60
2023/08/20 02:08:55;;;;;;;19.38;17.27;;;;;;;-141.84;82.01;21417.69;5022422;28;20313;-61
2023/08/20 02:11:23;;;;;;;18.92;17.13;;;;;;;-141.84;82.56;21399.41;5020517;28;20332;-60
2023/08/20 02:13:52;;;;;;;19.15;17.15;;;;;;;-141.84;82.86;21391.28;5019165;28;20209;-60
2023/08/20 02:16:20;;;;;;;17.17;15.05;;;;;;;-141.84;83.40;21364.84;5012441;28;20724;-60
2023/08/20 02:18:49;;;;;;;17.75;15.95;;;;;;;-141.84;84.35;21328.25;5022514;28;20230;-59
2023/08/20 02:21:19;;;;;;;20.38;17.80;;;;;;;-141.84;84.13;21354.66;5021923;28;20226;-61
2023/08/20 02:23:47;;;;;;;20.60;17.48;;;;;;;-141.84;83.89;21354.66;5013873;28;20356;-61
2023/08/20 02:26:16;;;;;;;19.98;18.08;;;;;;;-141.84;84.11;21342.47;5022499;28;20312;-60
2023/08/20 02:28:44;;;;;;;18.98;17.13;;;;;;;-141.84;84.89;21311.97;5022248;28;20336;-64
2023/08/20 02:31:13;;;;;;;19.08;17.10;;;;;;;-141.84;85.40;21309.94;5010995;28;20218;-60
2023/08/20 02:33:41;;;;;;;20.38;18.27;;;;;;;-141.84;84.61;21324.19;5014426;28;20229;-59
2023/08/20 02:36:10;;;;;;;19.20;17.25;;;;;;;-141.84;84.05;21370.94;5022402;28;20256;-60
2023/08/20 02:38:40;;;;;;;21.65;19.45;;;;;;;-141.84;83.19;21387.19;5022410;28;20664;-59
2023/08/20 02:41:08;;;;;;;19.30;17.20;;;;;;;-141.84;84.09;21342.47;5022491;28;20336;-61
2023/08/20 02:43:37;;;;;;;20.27;18.27;;;;;;;-141.84;83.34;21368.91;5014457;28;20316;-59
2023/08/20 02:46:05;;;;;;;20.75;18.67;;;;;;;-141.84;83.96;21342.47;5014357;28;20230;-59
2023/08/20 02:48:34;;;;;;;20.15;18.27;;;;;;;-141.84;83.57;21330.28;5002783;28;20238;-61
2023/08/20 02:51:02;;;;;;;19.98;18.02;;;;;;;-141.84;84.65;21322.13;5002672;28;20274;-60
2023/08/20 02:53:31;;;;;;;19.75;17.85;;;;;;;-141.84;85.14;21309.94;4994414;28;20240;-61
2023/08/20 02:56:00;;;;;;;20.58;18.52;;;;;;;-141.84;85.45;21285.53;5021383;28;20296;-59
2023/08/20 02:58:29;;;;;;;20.88;18.65;;;;;;;-141.84;84.83;21297.75;5022330;28;20210;-60
2023/08/20 03:00:58;;;;;;;22.23;20.00;;;;;;;-141.84;84.98;21289.59;5021895;28;20312;-59
2023/08/20 03:03:27;;;;;;;20.02;17.65;;;;;;;-141.84;85.77;21281.47;5008210;28;20264;-60
2023/08/20 03:05:56;;;;;;;18.67;16.67;;;;;;;-141.84;85.70;21271.31;5010081;28;20256;-61
2023/08/20 03:08:24;;;;;;;18.48;16.65;;;;;;;-141.84;85.91;21273.34;5039261;28;20286;-60
2023/08/20 03:10:53;;;;;;;20.67;18.58;;;;;;;-141.84;85.35;21305.88;5040733;28;20729;-60
2023/08/20 03:13:22;;;;;;;21.17;19.00;;;;;;;-141.84;85.41;21281.47;5040770;28;20267;-59
2023/08/20 03:15:51;;;;;;;17.67;15.80;;;;;;;-141.84;85.05;21279.44;5044978;28;20268;-59
2023/08/20 03:18:20;;;;;;;19.38;17.38;;;;;;;-141.84;84.81;21297.75;5045160;28;20715;-61
2023/08/20 03:20:48;;;;;;;19.92;16.63;;;;;;;-141.84;85.06;21257.09;5045523;28;20221;-61
2023/08/20 03:23:17;;;;;;;20.10;18.08;;;;;;;-141.84;85.13;21277.41;5045155;28;20308;-61
2023/08/20 03:25:45;;;;;;;22.38;17.98;;;;;;;-141.84;85.17;21279.44;5037566;28;20217;-61
2023/08/20 03:28:14;;;;;;;19.00;17.10;;;;;;;-141.84;84.90;21289.59;5044908;28;20320;-61
2023/08/20 03:30:44;;;;;;;18.92;17.13;;;;;;;-141.84;85.61;21232.69;5056803;28;20272;-60
2023/08/20 03:33:12;;;;;;;19.55;17.08;;;;;;;-141.84;85.06;21232.69;5065152;28;20322;-59
2023/08/20 03:35:41;;;;;;;21.52;19.38;;;;;;;-141.84;85.66;21228.63;5056986;28;20259;-60
2023/08/20 03:38:09;;;;;;;19.50;17.63;;;;;;;-141.84;86.96;21210.31;5065374;28;20240;-60
2023/08/20 03:40:38;;;;;;;19.90;16.88;;;;;;;-141.84;87.17;21190.00;5065115;28;20663;-59
2023/08/20 03:43:06;;;;;;;19.58;17.67;;;;;;;-141.84;86.10;21212.34;5064349;28;20237;-60
2023/08/20 03:45:35;;;;;;;19.08;17.17;;;;;;;-141.84;85.97;21244.88;5053350;28;20229;-60
2023/08/20 03:48:05;;;;;;;21.45;19.23;;;;;;;-141.84;85.70;21218.44;5035961;28;20241;-58
2023/08/20 03:50:34;;;;;;;20.13;17.73;;;;;;;-141.84;85.87;21202.19;5022975;28;20731;-61
2023/08/20 03:53:02;;;;;;;19.40;17.40;;;;;;;-141.84;86.45;21202.19;5025235;28;20214;-60
2023/08/20 03:55:31;;;;;;;20.17;18.23;;;;;;;-141.84;86.65;21177.78;5037084;28;20294;-61
2023/08/20 03:57:59;;;;;;;22.13;17.98;;;;;;;-141.84;85.75;21210.31;5044997;28;20229;-60
2023/08/20 04:00:28;;;;;;;20.02;18.00;;;;;;;-141.84;85.86;21200.16;5044144;28;20240;-60
2023/08/20 04:02:56;;;;;;;19.73;17.60;;;;;;;-141.84;86.09;21183.88;5043920;28;20233;-61
2023/08/20 04:05:26;;;;;;;20.45;18.25;;;;;;;-141.84;86.63;21175.75;5038162;28;20237;-66
2023/08/20 04:07:54;;;;;;;21.15;18.65;;;;;;;-141.84;87.96;21141.19;5044168;28;20205;-61
2023/08/20 04:10:23;;;;;;;21.25;19.15;;;;;;;-141.84;89.93;21072.06;5044563;28;20322;-60
2023/08/20 04:12:51;;;;;;;20.35;18.27;;;;;;;-141.84;91.35;21063.94;5043983;28;20221;-59
2023/08/20 04:15:20;;;;;;;24.35;21.30;;;;;;;-141.84;92.12;21025.31;5043885;28;20229;-60
2023/08/20 04:17:48;;;;;;;25.73;22.35;;;;;;;-141.84;93.06;21009.03;5038354;28;20232;-59
2023/08/20 04:20:17;;;;;;;23.98;21.45;;;;;;;-141.84;93.39;20976.53;5044202;28;20339;-61
2023/08/20 04:22:47;;;;;;;27.00;23.95;;;;;;;-141.84;92.49;21031.41;5043982;28;20635;-59
2023/08/20 04:25:16;;;;;;;27.02;24.17;;;;;;;-141.84;91.76;21033.44;5043776;28;20233;-60
2023/08/20 04:27:44;;;;;;;24.83;21.83;;;;;;;-141.84;92.71;20996.84;5021153;28;20269;-60
2023/08/20 04:30:13;;;;;;;28.98;26.08;;;;;;;-141.84;92.60;20992.78;5016745;28;20717;-60
2023/08/20 04:32:42;;;;;;;28.58;25.63;;;;;;;-141.84;93.56;20984.66;5010444;28;20267;-60
2023/08/20 04:35:11;;;;;;;28.10;25.10;;;;;;;-141.84;93.78;20982.63;5024205;28;20682;-59
2023/08/20 04:37:39;;;;;;;30.25;26.85;;;;;;;-141.84;93.16;20976.53;5016673;28;20241;-60
2023/08/20 04:40:10;;;;;;;31.65;27.10;;;;;;;-141.84;93.59;21007.00;5024037;28;20308;-60
2023/08/20 04:42:39;;;;;;;31.40;28.02;;;;;;;-141.84;93.99;20941.97;5026218;28;20652;-60
2023/08/20 04:45:08;;;;;;;29.92;26.65;;;;;;;-141.84;94.83;20935.88;5044033;28;20312;-61
2023/08/20 04:47:37;;;;;;;37.30;29.50;;;;;;;-141.84;94.80;20933.81;5015987;28;20279;-59
2023/08/20 04:50:07;;;;;;;32.00;28.50;;;;;;;-141.84;93.85;20950.09;5024012;28;20252;-61
2023/08/20 04:52:36;;;;;;;30.67;27.45;;;;;;;-141.84;93.87;20946.03;5023975;28;20279;-60
2023/08/20 04:55:05;;;;;;;30.67;27.38;;;;;;;-141.84;93.34;20954.16;5046893;28;20311;-59
2023/08/20 04:57:34;;;;;;;31.15;27.40;;;;;;;-141.84;93.79;20933.81;5055288;28;20652;-59
2023/08/20 05:00:05;;;;;;;31.33;28.02;;;;;;;-141.84;94.48;20923.66;5063430;28;20622;-60
2023/08/20 05:02:33;;;;;;;32.42;28.85;;;;;;;-141.84;94.59;20905.38;5051125;28;20316;-60
2023/08/20 05:05:03;;;;;;;33.03;28.88;;;;;;;-141.84;93.45;20944.00;5023561;28;20662;-60
2023/08/20 05:07:32;;;;;;;28.65;25.65;;;;;;;-141.84;93.92;20905.38;5015288;28;20316;-60
2023/08/20 05:10:00;;;;;;;37.08;31.42;;;;;;;-141.84;94.44;20893.16;5038018;28;20253;-58
2023/08/20 05:12:28;;;;;;;33.17;29.60;;;;;;;-141.84;94.51;20956.19;5042853;28;20317;-60
2023/08/20 05:14:58;;;;;;;32.40;28.30;;;;;;;-141.84;93.72;20927.72;5043103;28;20240;-61
2023/08/20 05:17:27;;;;;;;31.80;27.50;;;;;;;-141.84;94.86;20907.41;5035593;28;20320;-61
2023/08/20 05:19:55;;;;;;;31.48;28.17;;;;;;;-141.84;95.19;20909.44;5043855;28;20256;-59
2023/08/20 05:22:24;;;;;;;31.23;27.73;;;;;;;-141.84;95.75;20854.53;5043132;28;20312;-58
2023/08/20 05:24:52;;;;;;;30.27;26.98;;;;;;;-141.84;96.07;20893.16;5043109;28;20256;-60
2023/08/20 05:27:21;;;;;;;31.50;28.20;;;;;;;-141.84;95.92;20891.13;5043253;28;20304;-60
2023/08/20 05:29:49;;;;;;;34.58;28.40;;;;;;;-141.84;95.55;20844.38;5031269;28;20316;-60
2023/08/20 05:32:19;;;;;;;28.77;25.55;;;;;;;-141.84;95.05;20862.69;5022693;28;20321;-59
2023/08/20 05:34:47;;;;;;;29.10;26.00;;;;;;;-141.84;95.33;20891.13;5023191;28;20208;-60
2023/08/20 05:37:16;;;;;;;29.10;26.02;;;;;;;-141.84;95.15;20925.69;5022370;28;20261;-59
2023/08/20 05:39:45;;;;;;;29.20;26.20;;;;;;;-141.84;94.61;20952.13;5015022;28;20313;-58
2023/08/20 05:42:13;;;;;;;27.80;24.80;;;;;;;-141.84;94.03;20960.25;5022837;28;20265;-60
2023/08/20 05:44:42;;;;;;;27.80;24.58;;;;;;;-141.84;93.06;20978.56;5022574;28;20246;-59
2023/08/20 05:47:10;;;;;;;25.75;23.00;;;;;;;-141.84;92.64;21009.03;5006208;28;20217;-61
2023/08/20 05:49:40;;;;;;;28.00;23.73;;;;;;;-141.84;91.12;21037.50;4995628;28;20773;-60
2023/08/20 05:52:09;;;;;;;24.23;21.67;;;;;;;-141.84;90.38;21094.44;5002532;28;20347;-60
2023/08/20 05:54:37;;;;;;;24.48;21.92;;;;;;;-141.84;89.04;21151.34;5009085;28;20262;-60
2023/08/20 05:57:07;;;;;;;26.17;23.48;;;;;;;-141.84;86.46;21200.16;5022556;28;20225;-59
2023/08/20 05:59:35;;;;;;;25.23;22.65;;;;;;;-141.84;85.31;21285.53;5014766;28;20721;-60
2023/08/20 06:02:04;;;;;;;23.70;21.20;;;;;;;-141.84;83.35;21287.56;5023332;28;20201;-59
2023/08/20 06:04:32;;;;;;;20.70;18.63;;;;;;;-141.84;82.97;21309.94;5042855;28;20205;-60
2023/08/20 06:07:02;;;;;;;24.02;21.50;;;;;;;-141.84;83.01;21318.06;5041317;28;20233;-60
2023/08/20 06:09:30;;;;;;;18.88;17.00;;;;;;;-141.84;83.38;21305.88;5034326;28;20243;-59
2023/08/20 06:11:59;;;;;;;21.58;19.33;;;;;;;-141.84;82.76;21322.13;5042139;28;20738;-60
2023/08/20 06:14:27;;;;;;;20.88;18.75;;;;;;;-141.84;81.17;21320.09;5041650;28;20716;-59
2023/08/20 06:16:56;;;;;;;22.95;20.58;;;;;;;-141.84;81.24;21366.88;5042380;28;20248;-60
2023/08/20 06:19:25;;;;;;;23.83;21.35;;;;;;;-141.84;79.68;21377.03;5039340;28;20355;-61
2023/08/20 06:21:53;;;;;;;23.23;20.50;;;;;;;-141.84;79.39;21409.56;5041908;28;20324;-60
2023/08/20 06:24:23;;;;;;;21.00;18.95;;;;;;;-141.84;79.80;21405.50;5041832;28;20243;-60
2023/08/20 06:26:53;;;;;;;24.63;20.50;;;;;;;-141.84;77.81;21476.66;5042034;28;20233;-60
2023/08/20 06:29:22;;;;;;;22.35;20.05;;;;;;;-141.84;76.05;21529.53;5042505;28;20240;-61
2023/08/20 06:31:51;;;;;;;22.23;17.85;;;;;;;-141.84;76.92;21521.41;5059941;28;20236;-61
2023/08/20 06:34:19;;;;;;;20.75;18.38;;;;;;;-141.84;76.83;21507.16;5062344;28;20251;-60
2023/08/20 06:36:48;;;;;;;20.77;18.48;;;;;;;-141.84;76.58;21517.31;5061306;28;20719;-60
2023/08/20 06:39:18;;;;;;;21.00;18.80;;;;;;;-141.84;76.44;21570.19;5061740;28;20263;-60
2023/08/20 06:41:48;;;;;;;20.92;18.73;;;;;;;-141.84;74.95;21578.31;5053960;28;20260;-60
2023/08/20 06:44:17;;;;;;;19.73;17.77;;;;;;;-141.84;74.98;21612.88;5044180;28;20245;-60
2023/08/20 06:46:45;;;;;;;20.40;17.90;;;;;;;-141.84;73.83;21635.25;5042481;28;20296;-60
2023/08/20 06:49:14;;;;;;;18.08;16.15;;;;;;;-141.84;74.03;21680.00;5043421;28;20221;-60
2023/08/20 06:51:42;;;;;;;18.85;16.85;;;;;;;-141.84;72.39;21779.63;5037234;28;20235;-61
2023/08/20 06:54:11;;;;;;;17.10;15.27;;;;;;;-141.84;72.38;21822.31;5049921;28;20256;-59
2023/08/20 06:56:39;;;;;;;19.35;17.35;;;;;;;-141.84;71.48;21903.66;5066169;28;20224;-58
2023/08/20 06:59:10;;;;;;;19.13;17.00;;;;;;;-141.84;72.15;21830.47;5065837;28;20213;-60
2023/08/20 07:01:38;;;;;;;20.50;18.33;;;;;;;-141.84;72.16;21810.13;5053151;28;20590;-60
2023/08/20 07:04:07;;;;;;;17.77;16.02;;;;;;;-141.84;74.08;21698.28;5045483;28;20240;-60
2023/08/20 07:06:36;;;;;;;16.70;15.18;;;;;;;-141.84;74.29;21698.28;5045043;28;20258;-62
2023/08/20 07:09:04;;;;;;;17.77;16.17;;;;;;;-141.84;73.00;21728.78;5045636;28;20229;-60
2023/08/20 07:11:33;;;;;;;18.02;16.30;;;;;;;-141.84;71.46;21850.78;5037466;28;20300;-60
2023/08/20 07:14:02;;;;;;;17.30;15.70;;;;;;;-141.84;70.01;21891.47;5044985;28;20227;-61
2023/08/20 07:16:32;;;;;;;17.42;15.70;;;;;;;-141.84;69.46;21978.91;5045915;28;20213;-60
2023/08/20 07:19:01;;;;;;;16.40;14.57;;;;;;;-141.84;69.44;21989.06;5045528;28;20676;-61
2023/08/20 07:21:29;;;;;;;17.15;15.35;;;;;;;-141.84;69.79;21972.81;5036737;28;20585;-61
2023/08/20 07:23:58;;;;;;;16.45;14.85;;;;;;;-141.84;68.50;22039.91;5045053;28;20320;-60
2023/08/20 07:26:26;;;;;;;16.08;14.40;;;;;;;-141.84;68.12;22141.59;5045143;28;20265;-60
2023/08/20 07:28:58;;;;;;;17.10;15.48;;;;;;;-141.84;66.54;22281.91;5045503;28;20669;-60
2023/08/20 07:31:27;;;;;;;15.60;14.20;;;;;;;-141.84;66.00;22410.03;5054905;28;20691;-61
2023/08/20 07:33:59;;;;;;;14.30;12.80;;;;;;;-141.84;65.04;22420.19;5065623;28;20275;-61
2023/08/20 07:36:32;;;;;;;14.27;12.90;;;;;;;-141.84;65.65;22359.19;5064612;28;20323;-59
2023/08/20 07:39:01;;;;;;;14.20;12.82;;;;;;;-141.84;65.73;22330.72;5064784;28;20319;-60
2023/08/20 07:41:30;;;;;;;11.60;10.50;;;;;;;-141.84;65.05;22296.13;5056787;28;20220;-60
2023/08/20 07:43:59;;;;;;;10.95;9.88;;;;;;;-141.84;65.21;22267.66;5049984;28;20237;-61
2023/08/20 07:46:28;;;;;;;11.10;10.00;;;;;;;-141.84;63.80;22326.66;5045180;28;20213;-61
2023/08/20 07:48:57;;;;;;;12.32;11.07;;;;;;;-141.84;64.20;22231.06;5044921;28;20320;-60
2023/08/20 07:51:26;;;;;;;12.18;10.88;;;;;;;-141.84;64.71;22212.75;5036182;28;20278;-61
2023/08/20 07:53:54;;;;;;;11.77;10.57;;;;;;;-141.84;66.05;22157.84;5046484;28;20312;-59
2023/08/20 07:56:23;;;;;;;10.60;9.70;;;;;;;-141.84;65.76;22127.34;5064748;28;20688;-60
2023/08/20 07:58:51;;;;;;;9.55;8.65;;;;;;;-141.84;66.14;22119.22;5064958;28;20299;-61
2023/08/20 08:01:20;;;;;;;10.57;9.48;;;;;;;-141.84;64.60;22168.03;5025605;28;20342;-60
2023/08/20 08:03:48;;;;;;;11.32;10.18;;;;;;;-141.84;64.33;22139.56;5038125;28;20241;-60
2023/08/20 08:06:19;;;;;;;12.23;9.88;;;;;;;-141.84;64.89;22133.44;5044201;28;20245;-60
2023/08/20 08:08:48;;;;;;;10.50;8.93;;;;;;;-141.84;63.83;22196.50;5044495;28;20251;-59
2023/08/20 08:11:16;;;;;;;9.52;8.63;;;;;;;-141.84;62.20;22342.91;5044104;28;20212;-60
2023/08/20 08:13:45;;;;;;;9.45;8.35;;;;;;;-141.84;61.97;22403.94;5036106;28;23582;-60
2023/08/20 08:16:13;;;;;;;8.48;7.68;;;;;;;-141.84;61.36;22483.25;5043943;28;20742;-61
2023/08/20 08:18:42;;;;;;;8.32;7.53;;;;;;;-141.84;61.64;22513.75;5044211;28;20237;-60
2023/08/20 08:21:10;;;;;;;9.60;8.70;;;;;;;-141.84;59.85;22578.81;5043397;28;20308;-61
2023/08/20 08:23:40;;;;;;;10.60;8.25;;;;;;;-141.84;60.09;22615.44;5035510;28;20324;-59
2023/08/20 08:26:08;;;;;;;8.68;7.88;;;;;;;-141.84;59.89;22613.41;5044075;28;20212;-61
2023/08/20 08:28:37;;;;;;;9.45;8.63;;;;;;;-141.84;60.54;22591.03;5044981;28;20201;-60
2023/08/20 08:31:05;;;;;;;9.05;8.15;;;;;;;-141.84;61.26;22530.00;5043696;28;20676;-60
2023/08/20 08:33:35;;;;;;;9.10;8.20;;;;;;;-141.84;61.29;22595.09;5036375;28;20669;-61
2023/08/20 08:36:04;;;;;;;9.38;8.48;;;;;;;-141.84;60.64;22613.41;5043470;28;20762;-61
2023/08/20 08:38:33;;;;;;;9.35;8.45;;;;;;;-141.84;61.48;22580.84;5044032;28;20638;-60
2023/08/20 08:41:04;;;;;;;10.85;9.73;;;;;;;-141.84;61.71;22501.53;5043631;28;20217;-59
2023/08/20 08:43:33;;;;;;;10.23;9.20;;;;;;;-141.84;62.65;22444.59;5035278;28;20225;-60
2023/08/20 08:46:04;;;;;;;9.77;8.88;;;;;;;-141.84;63.45;22434.44;5043784;28;20229;-61
2023/08/20 08:48:32;;;;;;;10.30;9.32;;;;;;;-141.84;63.31;22353.09;5043329;28;20228;-60
2023/08/20 08:51:01;;;;;;;9.23;8.43;;;;;;;-141.84;63.21;22397.81;5043160;28;20237;-60
2023/08/20 08:53:33;;;;;;;9.30;8.40;;;;;;;-141.84;62.75;22475.09;5034306;28;20242;-61
2023/08/20 08:56:05;;;;;;;8.13;7.43;;;;;;;-141.84;63.23;22450.69;5055665;28;20213;-60
2023/08/20 08:58:34;;;;;;;10.10;9.15;;;;;;;-141.84;62.00;22521.88;5043929;28;20201;-59
2023/08/20 09:01:03;;;;;;;12.20;9.30;;;;;;;-141.84;62.00;22558.50;5043619;28;20229;-60
2023/08/20 09:03:32;;;;;;;9.98;8.98;;;;;;;-141.84;60.82;22572.72;5035697;28;20229;-60
2023/08/20 09:06:03;;;;;;;10.32;9.32;;;;;;;-141.84;61.50;22538.16;5042913;28;20233;-61
2023/08/20 09:08:32;;;;;;;10.48;9.57;;;;;;;-141.84;61.30;22509.69;5043223;28;20308;-61
2023/08/20 09:11:03;;;;;;;9.73;8.73;;;;;;;-141.84;62.23;22499.50;5043072;28;20309;-60
2023/08/20 09:13:36;;;;;;;9.65;8.40;;;;;;;-141.84;62.33;22554.41;5034452;28;20219;-60
2023/08/20 09:16:09;;;;;;;10.13;9.15;;;;;;;-141.84;60.79;22688.66;5043132;28;20235;-60
2023/08/20 09:18:40;;;;;;;9.98;9.07;;;;;;;-141.84;59.88;22702.88;5042946;28;20233;-59
2023/08/20 09:21:09;;;;;;;10.18;9.27;;;;;;;-141.84;60.57;22633.75;5042832;28;20578;-60
2023/08/20 09:23:39;;;;;;;10.35;9.32;;;;;;;-141.84;61.73;22521.88;5034883;28;20256;-60
2023/08/20 09:26:09;;;;;;;9.52;8.63;;;;;;;-141.84;62.93;22469.00;5043009;28;20287;-60
2023/08/20 09:28:43;;;;;;;11.43;9.32;;;;;;;-141.84;63.24;22405.97;5043596;28;20256;-61
2023/08/20 09:31:11;;;;;;;10.55;9.25;;;;;;;-141.84;63.04;22436.47;5058451;28;20320;-60
2023/08/20 09:33:51;;;;;;;10.05;9.15;;;;;;;-141.84;62.74;22530.00;5054671;28;20228;-60
2023/08/20 09:36:20;;;;;;;10.98;9.55;;;;;;;-141.84;61.59;22611.38;5062383;28;20685;-60
2023/08/20 09:38:53;;;;;;;10.13;9.30;;;;;;;-141.84;60.95;22607.31;5051825;28;20228;-59
2023/08/20 09:41:23;;;;;;;10.52;9.32;;;;;;;-141.84;60.45;22692.72;5042337;28;20225;-61
2023/08/20 09:43:57;;;;;;;9.52;8.63;;;;;;;-141.84;61.06;22654.06;5040479;28;20321;-60
2023/08/20 09:46:27;;;;;;;9.40;8.50;;;;;;;-141.84;60.86;22650.00;5043139;28;20312;-59
2023/08/20 09:48:58;;;;;;;9.68;8.77;;;;;;;-141.84;61.36;22586.97;5040819;28;20225;-60
2023/08/20 09:51:28;;;;;;;9.02;8.13;;;;;;;-141.84;61.69;22560.53;5032800;28;20738;-59
2023/08/20 09:54:07;;;;;;;9.52;8.57;;;;;;;-141.84;61.28;22595.09;5042287;28;20281;-61
2023/08/20 09:56:40;;;;;;;10.40;9.13;;;;;;;-141.84;61.26;22605.25;5042185;28;20229;-61
2023/08/20 09:59:12;;;;;;;9.55;8.75;;;;;;;-141.84;61.29;22603.22;5042109;28;20201;-61
2023/08/20 10:01:41;;;;;;;8.35;7.65;;;;;;;-141.84;61.71;22603.22;5034138;28;20292;-61
2023/08/20 10:04:10;;;;;;;10.52;9.43;;;;;;;-141.84;61.16;22674.41;5041742;28;20243;-61
2023/08/20 10:06:39;;;;;;;9.73;8.75;;;;;;;-141.84;60.93;22672.38;5042584;28;20868;-60
2023/08/20 10:09:09;;;;;;;9.15;8.25;;;;;;;-141.84;60.97;22664.25;5041595;28;20488;-60
2023/08/20 10:11:38;;;;;;;9.55;8.10;;;;;;;-141.84;60.65;22641.88;5031352;28;20320;-60
2023/08/20 10:14:07;;;;;;;9.23;8.43;;;;;;;-141.84;60.71;22670.34;5042069;28;20210;-59
2023/08/20 10:16:35;;;;;;;8.55;7.75;;;;;;;-141.84;60.42;22725.25;5042787;28;20217;-61
2023/08/20 10:19:06;;;;;;;8.40;7.70;;;;;;;-141.84;60.58;22725.25;5041555;28;20225;-60
2023/08/20 10:21:35;;;;;;;9.63;8.63;;;;;;;-141.84;59.28;22767.97;5034420;28;20324;-59
2023/08/20 10:24:05;;;;;;;8.60;7.80;;;;;;;-141.84;60.18;22751.69;5040644;28;20264;-59
2023/08/20 10:26:35;;;;;;;8.00;7.30;;;;;;;-141.84;60.30;22831.03;5041997;28;20692;-61
2023/08/20 10:29:46;;;;;;;8.82;8.02;;;;;;;-141.84;59.79;22829.00;5043492;28;20236;-61
2023/08/20 10:32:16;;;;;;;10.27;9.27;;;;;;;-141.84;59.25;22786.28;5009094;28;20305;-60
2023/08/20 10:34:51;;;;;;;8.30;7.70;;;;;;;-141.84;59.57;22796.44;5026324;28;20216;-61
2023/08/20 10:37:28;;;;;;;8.60;7.90;;;;;;;-141.84;59.34;22810.69;5024145;28;20229;-61
2023/08/20 10:39:57;;;;;;;8.65;7.95;;;;;;;-141.84;58.67;22820.84;5021777;28;20233;-60
2023/08/20 10:42:29;;;;;;;8.45;7.60;;;;;;;-141.84;58.30;22877.81;5022565;28;20261;-61
2023/08/20 10:44:59;;;;;;;8.18;7.50;;;;;;;-141.84;58.18;22894.06;5022630;28;20253;-60
2023/08/20 10:47:37;;;;;;;8.20;7.47;;;;;;;-141.84;58.40;22877.81;5032715;28;20300;-61
2023/08/20 10:50:10;;;;;;;8.60;7.82;;;;;;;-141.84;58.09;22924.59;5042143;28;20209;-60
2023/08/20 10:52:47;;;;;;;8.35;7.55;;;;;;;-141.84;57.75;22930.69;5042413;28;20255;-60
2023/08/20 10:55:16;;;;;;;8.55;7.70;;;;;;;-141.84;56.86;23042.56;5054202;28;20221;-60
2023/08/20 10:57:45;;;;;;;7.85;7.25;;;;;;;-141.84;57.57;22951.03;5053795;28;23261;-59
2023/08/20 11:00:17;;;;;;;8.77;7.88;;;;;;;-141.84;58.30;22924.59;5061967;28;20311;-60
2023/08/20 11:02:47;;;;;;;8.65;7.80;;;;;;;-141.84;58.21;22961.19;5047614;28;20304;-60
2023/08/20 11:05:21;;;;;;;9.52;8.57;;;;;;;-141.84;58.34;22946.97;5041350;28;20645;-60
2023/08/20 11:07:50;;;;;;;8.48;7.75;;;;;;;-141.84;58.90;23005.94;5036234;28;20292;-60
2023/08/20 11:10:19;;;;;;;8.32;7.63;;;;;;;-141.84;57.95;23060.88;5039962;28;20252;-62
2023/08/20 11:12:48;;;;;;;8.10;7.43;;;;;;;-141.84;57.75;23038.50;5038683;28;20226;-60
2023/08/20 11:15:16;;;;;;;8.35;7.53;;;;;;;-141.84;57.07;23069.00;5040798;28;20265;-61
2023/08/20 11:17:48;;;;;;;9.25;7.97;;;;;;;-141.84;57.12;23132.06;5032407;28;20233;-59